sensor_id;sensor_type;location;lat;lon;timestamp;pressure;altitude;pressure_sealevel;temperature;humidity
41140;BME280;26881;48.784;9.192;2023-01-30T00:02:42;99303.94;;;0.36;74.15
41140;BME280;26881;48.784;9.192;2023-01-30T00:08:04;99289.34;;;0.40;74.83
41140;BME280;26881;48.784;9.192;2023-01-30T00:13:26;99273.94;;;0.34;74.73
41140;BME280;26881;48.784;9.192;2023-01-30T00:18:47;99246.47;;;0.34;75.37
41140;BME280;26881;48.784;9.192;2023-01-30T00:24:09;99249.94;;;0.29;75.16
41140;BME280;26881;48.784;9.192;2023-01-30T00:29:31;99261.97;;;0.28;74.71
41140;BME280;26881;48.784;9.192;2023-01-30T00:34:53;99251.69;;;0.27;74.94
41140;BME280;26881;48.784;9.192;2023-01-30T00:40:15;99225.09;;;0.26;74.69
41140;BME280;26881;48.784;9.192;2023-01-30T00:45:39;99241.47;;;0.14;75.16
41140;BME280;26881;48.784;9.192;2023-01-30T00:51:20;99249.16;;;0.16;75.31
41140;BME280;26881;48.784;9.192;2023-01-30T00:56:42;99270.53;;;0.29;75.13
41140;BME280;26881;48.784;9.192;2023-01-30T01:02:04;99281.63;;;0.37;74.89
41140;BME280;26881;48.784;9.192;2023-01-30T01:07:25;99313.31;;;0.45;74.00
41140;BME280;26881;48.784;9.192;2023-01-30T01:12:48;99326.19;;;0.45;74.31
41140;BME280;26881;48.784;9.192;2023-01-30T01:18:10;99317.56;;;0.54;73.40
41140;BME280;26881;48.784;9.192;2023-01-30T01:23:32;99325.31;;;0.48;73.15
41140;BME280;26881;48.784;9.192;2023-01-30T01:28:55;99327.03;;;0.47;73.44
41140;BME280;26881;48.784;9.192;2023-01-30T01:34:17;99346.75;;;0.50;74.23
41140;BME280;26881;48.784;9.192;2023-01-30T01:39:39;99336.44;;;0.50;73.45
41140;BME280;26881;48.784;9.192;2023-01-30T01:45:21;99313.31;;;0.45;73.58
41140;BME280;26881;48.784;9.192;2023-01-30T01:50:53;99318.47;;;0.44;73.79
41140;BME280;26881;48.784;9.192;2023-01-30T01:56:19;99327.97;;;0.31;73.22
41140;BME280;26881;48.784;9.192;2023-01-30T02:01:41;99307.44;;;0.25;73.48
41140;BME280;26881;48.784;9.192;2023-01-30T02:07:03;99327.19;;;0.18;73.39
41140;BME280;26881;48.784;9.192;2023-01-30T02:12:25;99331.44;;;0.25;74.24
41140;BME280;26881;48.784;9.192;2023-01-30T02:17:47;99323.72;;;0.20;74.44
41140;BME280;26881;48.784;9.192;2023-01-30T02:23:31;99306.69;;;0.03;74.35
41140;BME280;26881;48.784;9.192;2023-01-30T02:35:10;99272.47;;;-0.10;76.13
41140;BME280;26881;48.784;9.192;2023-01-30T02:40:42;99310.09;;;0.05;75.47
41140;BME280;26881;48.784;9.192;2023-01-30T02:46:31;99264.63;;;0.14;75.30
41140;BME280;26881;48.784;9.192;2023-01-30T02:51:56;99256.09;;;0.05;75.17
41140;BME280;26881;48.784;9.192;2023-01-30T02:57:21;99277.44;;;0.24;74.16
41140;BME280;26881;48.784;9.192;2023-01-30T03:08:52;99234.59;;;0.13;74.41
41140;BME280;26881;48.784;9.192;2023-01-30T03:14:24;99209.72;;;0.14;74.43
41140;BME280;26881;48.784;9.192;2023-01-30T03:19:47;99198.63;;;0.10;74.32
41140;BME280;26881;48.784;9.192;2023-01-30T03:25:10;99163.44;;;0.17;74.12
41140;BME280;26881;48.784;9.192;2023-01-30T03:30:34;99123.13;;;0.16;74.56
41140;BME280;26881;48.784;9.192;2023-01-30T03:35:56;99097.19;;;0.40;74.36
41140;BME280;26881;48.784;9.192;2023-01-30T03:41:18;99106.19;;;0.81;72.38
41140;BME280;26881;48.784;9.192;2023-01-30T03:46:39;99112.91;;;0.95;70.98
41140;BME280;26881;48.784;9.192;2023-01-30T03:52:01;99116.22;;;1.06;70.31
41140;BME280;26881;48.784;9.192;2023-01-30T03:57:23;99147.88;;;1.16;69.87
41140;BME280;26881;48.784;9.192;2023-01-30T04:02:45;99145.25;;;1.19;69.71
41140;BME280;26881;48.784;9.192;2023-01-30T04:08:06;99139.09;;;1.32;69.49
41140;BME280;26881;48.784;9.192;2023-01-30T04:13:28;99143.13;;;1.53;68.45
41140;BME280;26881;48.784;9.192;2023-01-30T04:18:50;99132.13;;;1.40;68.25
41140;BME280;26881;48.784;9.192;2023-01-30T04:24:12;99138.84;;;1.51;68.04
41140;BME280;26881;48.784;9.192;2023-01-30T04:29:34;99130.28;;;1.48;67.77
41140;BME280;26881;48.784;9.192;2023-01-30T04:34:56;99132.00;;;1.50;67.90
41140;BME280;26881;48.784;9.192;2023-01-30T04:40:18;99118.09;;;1.61;68.21
41140;BME280;26881;48.784;9.192;2023-01-30T04:45:44;99129.25;;;1.62;67.24
41140;BME280;26881;48.784;9.192;2023-01-30T04:51:06;99138.59;;;1.71;66.99
41140;BME280;26881;48.784;9.192;2023-01-30T04:56:27;99127.25;;;1.82;66.65
41140;BME280;26881;48.784;9.192;2023-01-30T05:01:49;99124.63;;;1.85;66.67
41140;BME280;26881;48.784;9.192;2023-01-30T05:07:11;99114.25;;;1.88;66.32
41140;BME280;26881;48.784;9.192;2023-01-30T05:12:33;99102.38;;;1.78;65.49
41140;BME280;26881;48.784;9.192;2023-01-30T05:17:55;99104.72;;;1.94;65.23
41140;BME280;26881;48.784;9.192;2023-01-30T05:23:17;99085.78;;;1.96;65.83
41140;BME280;26881;48.784;9.192;2023-01-30T05:28:39;99082.38;;;1.93;64.51
41140;BME280;26881;48.784;9.192;2023-01-30T05:34:01;99080.53;;;2.01;65.28
41140;BME280;26881;48.784;9.192;2023-01-30T05:39:22;99073.78;;;1.94;65.22
41140;BME280;26881;48.784;9.192;2023-01-30T05:44:44;99060.91;;;1.90;65.21
41140;BME280;26881;48.784;9.192;2023-01-30T05:50:07;99066.13;;;1.89;65.22
41140;BME280;26881;48.784;9.192;2023-01-30T05:55:29;99077.28;;;1.89;64.90
41140;BME280;26881;48.784;9.192;2023-01-30T06:00:51;99084.19;;;1.87;65.07
41140;BME280;26881;48.784;9.192;2023-01-30T06:06:13;99088.28;;;1.99;65.46
41140;BME280;26881;48.784;9.192;2023-01-30T06:11:34;99081.47;;;1.95;65.15
41140;BME280;26881;48.784;9.192;2023-01-30T06:16:56;99069.13;;;2.14;65.41
41140;BME280;26881;48.784;9.192;2023-01-30T06:22:18;99067.38;;;2.16;65.23
41140;BME280;26881;48.784;9.192;2023-01-30T06:27:40;99066.44;;;2.22;65.34
41140;BME280;26881;48.784;9.192;2023-01-30T06:33:03;99053.53;;;2.20;64.83
41140;BME280;26881;48.784;9.192;2023-01-30T06:38:24;99047.56;;;2.18;64.56
41140;BME280;26881;48.784;9.192;2023-01-30T06:43:47;99034.63;;;2.20;64.31
41140;BME280;26881;48.784;9.192;2023-01-30T06:49:08;99036.38;;;2.19;64.83
41140;BME280;26881;48.784;9.192;2023-01-30T06:54:30;99024.38;;;2.15;65.42
41140;BME280;26881;48.784;9.192;2023-01-30T06:59:52;99023.25;;;2.30;65.43
41140;BME280;26881;48.784;9.192;2023-01-30T07:05:14;99036.16;;;2.28;65.05
41140;BME280;26881;48.784;9.192;2023-01-30T07:10:36;99045.81;;;2.20;65.61
41140;BME280;26881;48.784;9.192;2023-01-30T07:15:57;99054.22;;;2.30;65.36
41140;BME280;26881;48.784;9.192;2023-01-30T07:21:19;99073.09;;;2.34;65.72
41140;BME280;26881;48.784;9.192;2023-01-30T07:26:41;99065.28;;;2.37;65.48
41140;BME280;26881;48.784;9.192;2023-01-30T07:32:04;99073.81;;;2.42;65.04
41140;BME280;26881;48.784;9.192;2023-01-30T07:37:26;99071.97;;;2.47;65.06
41140;BME280;26881;48.784;9.192;2023-01-30T07:48:18;99090.78;;;2.55;66.09
41140;BME280;26881;48.784;9.192;2023-01-30T07:53:40;99094.94;;;2.62;65.90
41140;BME280;26881;48.784;9.192;2023-01-30T07:59:02;99079.97;;;2.80;65.82
41140;BME280;26881;48.784;9.192;2023-01-30T08:04:26;99068.78;;;2.79;66.22
41140;BME280;26881;48.784;9.192;2023-01-30T08:09:47;99073.13;;;2.79;65.28
41140;BME280;26881;48.784;9.192;2023-01-30T08:15:09;99091.03;;;2.88;65.67
41140;BME280;26881;48.784;9.192;2023-01-30T08:20:32;99110.09;;;2.82;65.92
41140;BME280;26881;48.784;9.192;2023-01-30T08:26:03;99085.22;;;2.75;66.55
41140;BME280;26881;48.784;9.192;2023-01-30T08:31:26;99092.38;;;2.62;67.76
41140;BME280;26881;48.784;9.192;2023-01-30T08:36:48;99054.53;;;2.61;68.17
41140;BME280;26881;48.784;9.192;2023-01-30T08:42:10;99061.19;;;2.73;68.25
41140;BME280;26881;48.784;9.192;2023-01-30T08:47:32;99045.13;;;2.57;68.33
41140;BME280;26881;48.784;9.192;2023-01-30T08:52:55;99037.56;;;2.91;68.14
41140;BME280;26881;48.784;9.192;2023-01-30T08:58:20;99042.03;;;2.83;67.85
41140;BME280;26881;48.784;9.192;2023-01-30T09:03:42;99013.31;;;2.99;67.55
41140;BME280;26881;48.784;9.192;2023-01-30T09:09:04;98984.59;;;3.12;66.66
41140;BME280;26881;48.784;9.192;2023-01-30T09:14:25;98981.66;;;3.26;67.15
41140;BME280;26881;48.784;9.192;2023-01-30T09:19:47;98991.03;;;3.32;67.23
41140;BME280;26881;48.784;9.192;2023-01-30T09:25:09;98994.28;;;3.40;67.54
41140;BME280;26881;48.784;9.192;2023-01-30T09:30:31;98992.38;;;3.48;66.75
41140;BME280;26881;48.784;9.192;2023-01-30T09:35:53;98990.19;;;3.31;67.22
41140;BME280;26881;48.784;9.192;2023-01-30T09:47:12;98989.97;;;3.41;67.54
41140;BME280;26881;48.784;9.192;2023-01-30T09:53:05;98974.97;;;3.55;67.99
41140;BME280;26881;48.784;9.192;2023-01-30T09:58:41;98954.81;;;3.68;67.90
41140;BME280;26881;48.784;9.192;2023-01-30T10:04:12;98931.97;;;3.85;68.09
41140;BME280;26881;48.784;9.192;2023-01-30T10:09:51;98943.78;;;3.94;67.41
41140;BME280;26881;48.784;9.192;2023-01-30T10:21:03;98905.13;;;4.20;66.91
41140;BME280;26881;48.784;9.192;2023-01-30T10:26:27;98891.91;;;4.31;66.95
41140;BME280;26881;48.784;9.192;2023-01-30T10:32:13;98911.47;;;4.40;67.53
41140;BME280;26881;48.784;9.192;2023-01-30T10:37:58;98911.84;;;4.28;67.67
41140;BME280;26881;48.784;9.192;2023-01-30T10:43:38;98913.09;;;4.44;68.40
41140;BME280;26881;48.784;9.192;2023-01-30T10:49:05;98903.69;;;4.41;68.58
41140;BME280;26881;48.784;9.192;2023-01-30T11:00:00;98905.09;;;4.52;69.99
41140;BME280;26881;48.784;9.192;2023-01-30T11:05:29;98899.75;;;4.58;70.55
41140;BME280;26881;48.784;9.192;2023-01-30T11:11:00;98899.72;;;4.59;71.61
41140;BME280;26881;48.784;9.192;2023-01-30T11:22:13;98913.31;;;4.66;73.50
41140;BME280;26881;48.784;9.192;2023-01-30T11:27:35;98889.94;;;4.68;74.33
41140;BME280;26881;48.784;9.192;2023-01-30T11:33:31;98894.97;;;4.74;73.54
41140;BME280;26881;48.784;9.192;2023-01-30T11:39:10;98902.91;;;4.68;73.94
41140;BME280;26881;48.784;9.192;2023-01-30T11:44:40;98908.22;;;4.63;76.00
41140;BME280;26881;48.784;9.192;2023-01-30T11:50:03;98921.72;;;4.44;78.31
41140;BME280;26881;48.784;9.192;2023-01-30T11:55:45;98914.88;;;4.42;78.95
41140;BME280;26881;48.784;9.192;2023-01-30T12:01:34;98902.09;;;4.36;80.01
41140;BME280;26881;48.784;9.192;2023-01-30T12:07:14;98892.78;;;4.30;80.67
41140;BME280;26881;48.784;9.192;2023-01-30T12:12:45;98892.03;;;4.27;81.49
41140;BME280;26881;48.784;9.192;2023-01-30T12:18:15;98883.31;;;4.29;81.90
41140;BME280;26881;48.784;9.192;2023-01-30T12:23:48;98892.31;;;4.16;83.06
41140;BME280;26881;48.784;9.192;2023-01-30T12:29:22;98878.81;;;4.05;84.30
41140;BME280;26881;48.784;9.192;2023-01-30T12:34:45;98881.19;;;4.12;83.63
41140;BME280;26881;48.784;9.192;2023-01-30T12:40:40;98886.47;;;4.09;84.52
41140;BME280;26881;48.784;9.192;2023-01-30T12:46:14;98896.78;;;4.11;84.40
41140;BME280;26881;48.784;9.192;2023-01-30T12:51:53;98903.59;;;4.13;84.67
41140;BME280;26881;48.784;9.192;2023-01-30T13:08:53;98906.78;;;4.23;85.05
41140;BME280;26881;48.784;9.192;2023-01-30T13:14:33;98905.41;;;4.10;85.83
41140;BME280;26881;48.784;9.192;2023-01-30T13:20:03;98908.44;;;4.26;85.73
41140;BME280;26881;48.784;9.192;2023-01-30T13:25:37;98909.13;;;4.32;85.07
41140;BME280;26881;48.784;9.192;2023-01-30T13:31:05;98921.25;;;4.30;85.74
41140;BME280;26881;48.784;9.192;2023-01-30T13:36:39;98921.16;;;4.33;85.83
41140;BME280;26881;48.784;9.192;2023-01-30T13:42:06;98944.78;;;4.22;86.34
41140;BME280;26881;48.784;9.192;2023-01-30T13:47:38;98952.88;;;4.41;85.91
41140;BME280;26881;48.784;9.192;2023-01-30T13:53:27;98965.41;;;4.26;85.67
41140;BME280;26881;48.784;9.192;2023-01-30T14:15:26;98974.25;;;4.79;82.88
41140;BME280;26881;48.784;9.192;2023-01-30T14:20:50;98981.75;;;4.89;81.96
41140;BME280;26881;48.784;9.192;2023-01-30T14:26:12;98981.59;;;4.95;81.71
41140;BME280;26881;48.784;9.192;2023-01-30T14:31:46;98983.91;;;5.04;81.22
41140;BME280;26881;48.784;9.192;2023-01-30T14:48:44;99011.75;;;4.97;79.55
41140;BME280;26881;48.784;9.192;2023-01-30T14:59:52;99019.56;;;4.96;78.64
41140;BME280;26881;48.784;9.192;2023-01-30T15:05:41;99036.03;;;4.93;78.88
41140;BME280;26881;48.784;9.192;2023-01-30T15:11:20;99057.00;;;4.85;77.00
41140;BME280;26881;48.784;9.192;2023-01-30T15:17:08;99076.50;;;4.99;77.27
41140;BME280;26881;48.784;9.192;2023-01-30T15:23:01;99081.84;;;4.93;76.33
41140;BME280;26881;48.784;9.192;2023-01-30T15:34:30;99067.25;;;4.90;76.29
41140;BME280;26881;48.784;9.192;2023-01-30T15:46:10;99069.47;;;5.02;76.33
41140;BME280;26881;48.784;9.192;2023-01-30T15:51:34;99068.00;;;4.94;76.92
41140;BME280;26881;48.784;9.192;2023-01-30T15:56:57;99060.09;;;4.98;76.60
41140;BME280;26881;48.784;9.192;2023-01-30T16:02:27;99065.19;;;5.01;76.65
41140;BME280;26881;48.784;9.192;2023-01-30T16:07:52;99077.53;;;4.92;76.46
41140;BME280;26881;48.784;9.192;2023-01-30T16:13:14;99086.72;;;5.03;76.27
41140;BME280;26881;48.784;9.192;2023-01-30T16:18:42;99086.09;;;4.95;75.82
41140;BME280;26881;48.784;9.192;2023-01-30T16:24:16;99101.41;;;5.04;76.37
41140;BME280;26881;48.784;9.192;2023-01-30T16:29:49;99099.28;;;4.88;76.32
41140;BME280;26881;48.784;9.192;2023-01-30T16:35:27;99114.63;;;4.95;76.59
41140;BME280;26881;48.784;9.192;2023-01-30T16:40:51;99139.69;;;4.95;76.61
41140;BME280;26881;48.784;9.192;2023-01-30T16:52:24;99163.28;;;4.84;77.36
41140;BME280;26881;48.784;9.192;2023-01-30T16:57:55;99168.38;;;4.87;77.07
41140;BME280;26881;48.784;9.192;2023-01-30T17:03:21;99164.06;;;4.88;76.85
41140;BME280;26881;48.784;9.192;2023-01-30T17:08:55;99173.50;;;4.90;77.38
41140;BME280;26881;48.784;9.192;2023-01-30T17:14:20;99170.56;;;4.71;77.46
41140;BME280;26881;48.784;9.192;2023-01-30T17:19:45;99184.22;;;4.76;77.23
41140;BME280;26881;48.784;9.192;2023-01-30T17:25:17;99190.22;;;4.78;77.61
41140;BME280;26881;48.784;9.192;2023-01-30T17:30:40;99193.75;;;4.76;77.41
41140;BME280;26881;48.784;9.192;2023-01-30T17:36:04;99223.25;;;4.70;77.36
41140;BME280;26881;48.784;9.192;2023-01-30T17:41:28;99223.25;;;4.70;77.53
41140;BME280;26881;48.784;9.192;2023-01-30T17:46:51;99224.75;;;4.80;77.02
41140;BME280;26881;48.784;9.192;2023-01-30T17:52:13;99245.69;;;4.71;77.07
41140;BME280;26881;48.784;9.192;2023-01-30T17:57:35;99249.13;;;4.72;76.93
41140;BME280;26881;48.784;9.192;2023-01-30T18:02:56;99260.53;;;4.64;77.31
41140;BME280;26881;48.784;9.192;2023-01-30T18:08:18;99256.94;;;4.70;77.11
41140;BME280;26881;48.784;9.192;2023-01-30T18:13:41;99263.06;;;4.66;77.23
41140;BME280;26881;48.784;9.192;2023-01-30T18:19:05;99270.84;;;4.66;77.59
41140;BME280;26881;48.784;9.192;2023-01-30T18:24:27;99282.34;;;4.54;78.09
41140;BME280;26881;48.784;9.192;2023-01-30T18:29:49;99286.25;;;4.35;79.17
41140;BME280;26881;48.784;9.192;2023-01-30T18:35:10;99295.47;;;4.47;78.82
41140;BME280;26881;48.784;9.192;2023-01-30T18:40:32;99298.75;;;4.55;78.88
41140;BME280;26881;48.784;9.192;2023-01-30T18:46:01;99315.91;;;4.59;78.67
41140;BME280;26881;48.784;9.192;2023-01-30T18:51:25;99320.13;;;4.64;78.74
41140;BME280;26881;48.784;9.192;2023-01-30T18:56:47;99325.13;;;4.72;78.52
41140;BME280;26881;48.784;9.192;2023-01-30T19:02:10;99334.63;;;4.73;77.91
41140;BME280;26881;48.784;9.192;2023-01-30T19:07:33;99330.16;;;4.78;78.16
41140;BME280;26881;48.784;9.192;2023-01-30T19:12:55;99330.31;;;4.71;77.64
41140;BME280;26881;48.784;9.192;2023-01-30T19:18:36;99339.31;;;4.93;76.94
41140;BME280;26881;48.784;9.192;2023-01-30T19:24:01;99358.63;;;4.80;77.12
41140;BME280;26881;48.784;9.192;2023-01-30T19:29:22;99375.91;;;4.79;77.37
41140;BME280;26881;48.784;9.192;2023-01-30T19:34:44;99370.88;;;4.73;77.19
41140;BME280;26881;48.784;9.192;2023-01-30T19:40:07;99389.78;;;4.78;77.65
41140;BME280;26881;48.784;9.192;2023-01-30T19:45:30;99370.00;;;4.73;77.69
41140;BME280;26881;48.784;9.192;2023-01-30T19:50:55;99370.00;;;4.73;78.06
41140;BME280;26881;48.784;9.192;2023-01-30T19:56:19;99384.72;;;4.72;78.37
41140;BME280;26881;48.784;9.192;2023-01-30T20:01:43;99390.03;;;4.66;78.91
41140;BME280;26881;48.784;9.192;2023-01-30T20:07:05;99404.69;;;4.67;78.69
41140;BME280;26881;48.784;9.192;2023-01-30T20:12:27;99398.63;;;4.68;77.96
41140;BME280;26881;48.784;9.192;2023-01-30T20:17:51;99409.06;;;4.63;78.79
41140;BME280;26881;48.784;9.192;2023-01-30T20:23:13;99416.28;;;4.51;79.71
41140;BME280;26881;48.784;9.192;2023-01-30T20:28:36;99428.31;;;4.53;79.02
41140;BME280;26881;48.784;9.192;2023-01-30T20:34:03;99442.03;;;4.57;79.45
41140;BME280;26881;48.784;9.192;2023-01-30T20:39:29;99435.88;;;4.62;79.21
41140;BME280;26881;48.784;9.192;2023-01-30T20:44:51;99433.28;;;4.64;79.35
41140;BME280;26881;48.784;9.192;2023-01-30T20:50:14;99439.25;;;4.66;79.39
41140;BME280;26881;48.784;9.192;2023-01-30T20:55:36;99446.91;;;4.72;79.66
41140;BME280;26881;48.784;9.192;2023-01-30T21:01:16;99443.53;;;4.69;79.93
41140;BME280;26881;48.784;9.192;2023-01-30T21:06:39;99446.81;;;4.77;79.79
41140;BME280;26881;48.784;9.192;2023-01-30T21:12:06;99448.47;;;4.79;79.28
41140;BME280;26881;48.784;9.192;2023-01-30T21:17:27;99451.97;;;4.78;79.22
41140;BME280;26881;48.784;9.192;2023-01-30T21:22:49;99466.66;;;4.78;78.95
41140;BME280;26881;48.784;9.192;2023-01-30T21:28:11;99478.75;;;4.77;79.36
41140;BME280;26881;48.784;9.192;2023-01-30T21:33:33;99465.69;;;4.83;79.40
41140;BME280;26881;48.784;9.192;2023-01-30T21:38:55;99474.31;;;4.82;79.07
41140;BME280;26881;48.784;9.192;2023-01-30T21:44:35;99480.41;;;4.81;78.61
41140;BME280;26881;48.784;9.192;2023-01-30T21:49:58;99477.63;;;4.91;77.76
41140;BME280;26881;48.784;9.192;2023-01-30T21:55:20;99485.22;;;4.98;77.24
41140;BME280;26881;48.784;9.192;2023-01-30T22:00:42;99488.72;;;4.96;77.46
41140;BME280;26881;48.784;9.192;2023-01-30T22:06:08;99485.94;;;5.05;76.66
41140;BME280;26881;48.784;9.192;2023-01-30T22:11:31;99490.41;;;4.98;77.13
41140;BME280;26881;48.784;9.192;2023-01-30T22:16:53;99492.25;;;4.93;76.81
41140;BME280;26881;48.784;9.192;2023-01-30T22:22:15;99495.25;;;5.14;75.28
41140;BME280;26881;48.784;9.192;2023-01-30T22:27:37;99507.47;;;5.09;75.51
41140;BME280;26881;48.784;9.192;2023-01-30T22:32:59;99503.25;;;5.03;76.28
41140;BME280;26881;48.784;9.192;2023-01-30T22:38:20;99497.31;;;4.99;76.47
41140;BME280;26881;48.784;9.192;2023-01-30T22:43:46;99488.69;;;4.99;76.43
41140;BME280;26881;48.784;9.192;2023-01-30T22:49:08;99487.97;;;4.91;76.10
41140;BME280;26881;48.784;9.192;2023-01-30T22:54:30;99508.53;;;5.00;75.49
41140;BME280;26881;48.784;9.192;2023-01-30T22:59:52;99503.41;;;4.97;75.65
41140;BME280;26881;48.784;9.192;2023-01-30T23:05:14;99502.22;;;5.12;74.90
41140;BME280;26881;48.784;9.192;2023-01-30T23:10:38;99506.69;;;5.05;74.77
41140;BME280;26881;48.784;9.192;2023-01-30T23:16:02;99504.00;;;5.10;74.74
41140;BME280;26881;48.784;9.192;2023-01-30T23:21:30;99504.81;;;5.12;74.52
41140;BME280;26881;48.784;9.192;2023-01-30T23:26:52;99505.63;;;5.15;74.68
41140;BME280;26881;48.784;9.192;2023-01-30T23:32:14;99503.72;;;5.22;73.52
41140;BME280;26881;48.784;9.192;2023-01-30T23:37:39;99506.56;;;5.11;73.52
41140;BME280;26881;48.784;9.192;2023-01-30T23:43:19;99514.47;;;5.05;73.75
41140;BME280;26881;48.784;9.192;2023-01-30T23:48:42;99512.69;;;5.07;74.23
41140;BME280;26881;48.784;9.192;2023-01-30T23:54:05;99510.13;;;5.05;73.64
41140;BME280;26881;48.784;9.192;2023-01-30T23:59:27;99494.00;;;4.91;73.48
